createdAt,value
2022-10-22T00:00:17.436Z,98815.63
2022-10-22T00:02:44.922Z,98826.81
2022-10-22T00:05:12.013Z,98834.44
2022-10-22T00:07:39.469Z,98836.41
2022-10-22T00:10:07.938Z,98841.06
2022-10-22T00:12:35.422Z,98858.38
2022-10-22T00:15:03.759Z,98849.81
2022-10-22T00:17:30.795Z,98872.59
2022-10-22T00:19:57.985Z,98862.91
2022-10-22T00:22:24.899Z,98851.94
2022-10-22T00:24:51.925Z,98853.84
2022-10-22T00:27:18.859Z,98868.22
2022-10-22T00:29:45.990Z,98827.31
2022-10-22T00:32:13.400Z,98852.72
2022-10-22T00:34:40.409Z,98853.09
2022-10-22T00:37:07.761Z,98836.19
2022-10-22T00:39:34.742Z,98808.03
2022-10-22T00:42:01.752Z,98822.19
2022-10-22T00:45:09.453Z,98851.13
2022-10-22T00:48:04.768Z,98841.78
2022-10-22T00:50:59.751Z,98873.16
2022-10-22T00:53:34.885Z,98841.22
2022-10-22T00:56:02.382Z,98844.94
2022-10-22T00:58:34.915Z,98861.16
2022-10-22T01:01:02.567Z,98871.78
2022-10-22T01:03:29.578Z,98886.09
2022-10-22T01:06:00.242Z,98847.41
2022-10-22T01:08:39.808Z,98856.16
2022-10-22T01:11:29.920Z,98868.47
2022-10-22T01:14:24.527Z,98868.31
2022-10-22T01:17:25.092Z,98838.72
2022-10-22T01:20:55.034Z,98862.59
2022-10-22T01:24:05.775Z,98822.34
2022-10-22T01:26:57.655Z,98822.59
2022-10-22T01:29:41.216Z,98839.78
2022-10-22T01:32:23.983Z,98834.59
2022-10-22T01:34:56.371Z,98832.53
2022-10-22T01:37:28.436Z,98841.81
2022-10-22T01:39:59.717Z,98879.19
2022-10-22T01:42:26.715Z,98857.16
2022-10-22T01:44:53.789Z,98894.00
2022-10-22T01:48:18.776Z,98886.88
2022-10-22T01:51:13.177Z,98860.94
2022-10-22T01:54:03.241Z,98841.38
2022-10-22T01:56:41.135Z,98838.41
2022-10-22T02:00:00.027Z,98873.28
2022-10-22T02:03:10.131Z,98878.88
2022-10-22T02:05:51.874Z,98871.97
2022-10-22T02:08:29.465Z,98916.97
2022-10-22T02:10:58.614Z,98895.00
2022-10-22T02:13:53.846Z,98906.63
2022-10-22T02:16:44.120Z,98884.69
2022-10-22T02:19:16.004Z,98875.50
2022-10-22T02:21:44.112Z,98894.63
2022-10-22T02:24:11.251Z,98886.84
2022-10-22T02:26:46.246Z,98906.06
2022-10-22T02:29:28.010Z,98898.34
2022-10-22T02:31:58.903Z,98898.25
2022-10-22T02:34:31.274Z,98919.38
2022-10-22T02:37:02.130Z,98927.09
2022-10-22T02:39:31.358Z,98878.16
2022-10-22T02:41:58.808Z,98871.34
2022-10-22T02:44:25.726Z,98893.25
2022-10-22T02:46:53.053Z,98874.03
2022-10-22T02:49:20.197Z,98846.47
2022-10-22T02:51:47.174Z,98841.41
2022-10-22T02:54:14.829Z,98866.88
2022-10-22T02:56:41.938Z,98884.22
2022-10-22T02:59:09.196Z,98874.38
2022-10-22T03:01:36.167Z,98894.00
2022-10-22T03:04:03.659Z,98892.53
2022-10-22T03:06:31.467Z,98901.72
2022-10-22T03:08:58.513Z,98928.72
2022-10-22T03:11:25.644Z,98901.13
2022-10-22T03:13:52.880Z,98895.97
2022-10-22T03:16:19.844Z,98862.41
2022-10-22T03:18:47.110Z,98845.31
2022-10-22T03:21:42.786Z,98860.56
2022-10-22T03:24:20.118Z,98868.00
2022-10-22T03:26:49.403Z,98874.28
2022-10-22T03:29:17.090Z,98883.81
2022-10-22T03:31:44.080Z,98871.28
2022-10-22T03:34:13.402Z,98885.47
2022-10-22T03:36:41.635Z,98889.78
2022-10-22T03:39:09.616Z,98894.81
2022-10-22T03:41:37.003Z,98860.28
2022-10-22T03:44:05.522Z,98838.88
2022-10-22T03:46:32.587Z,98841.59
2022-10-22T03:48:59.912Z,98877.50
2022-10-22T03:51:28.169Z,98845.31
2022-10-22T03:53:55.874Z,98871.88
2022-10-22T03:56:23.228Z,98886.25
2022-10-22T03:58:50.240Z,98860.72
2022-10-22T04:01:17.454Z,98880.16
2022-10-22T04:03:44.567Z,98876.84
2022-10-22T04:06:13.503Z,98865.91
2022-10-22T04:08:43.091Z,98856.09
2022-10-22T04:11:11.598Z,98891.19
2022-10-22T04:13:39.252Z,98885.03
2022-10-22T04:16:11.054Z,98876.34
2022-10-22T04:18:38.750Z,98878.47
2022-10-22T04:21:07.527Z,98904.72
2022-10-22T04:23:34.682Z,98883.16
2022-10-22T04:26:05.807Z,98876.91
2022-10-22T04:28:34.849Z,98885.16
2022-10-22T04:31:09.590Z,98907.03
2022-10-22T04:33:36.884Z,98900.00
2022-10-22T04:36:16.723Z,98910.97
2022-10-22T04:38:46.890Z,98907.06
2022-10-22T04:41:25.576Z,98906.19
2022-10-22T04:43:54.791Z,98904.25
2022-10-22T04:46:22.913Z,98900.22
2022-10-22T04:48:52.185Z,98905.97
2022-10-22T04:51:21.592Z,98907.94
2022-10-22T04:53:49.154Z,98894.56
2022-10-22T04:56:26.710Z,98901.19
2022-10-22T04:59:04.197Z,98906.31
2022-10-22T05:01:40.170Z,98898.78
2022-10-22T05:04:23.582Z,98893.81
2022-10-22T05:06:50.891Z,98890.59
2022-10-22T05:09:20.563Z,98894.41
2022-10-22T05:11:50.352Z,98909.44
2022-10-22T05:14:22.380Z,98893.66
2022-10-22T05:16:51.312Z,98889.44
2022-10-22T05:19:24.130Z,98906.34
2022-10-22T05:21:53.964Z,98909.47
2022-10-22T05:24:21.598Z,98907.16
2022-10-22T05:26:53.682Z,98932.75
2022-10-22T05:29:21.881Z,98918.25
2022-10-22T05:31:49.550Z,98919.75
2022-10-22T05:34:17.079Z,98911.22
2022-10-22T05:36:44.492Z,98913.19
2022-10-22T05:39:12.180Z,98917.09
2022-10-22T05:41:39.193Z,98887.53
2022-10-22T05:44:06.392Z,98924.59
2022-10-22T05:46:36.429Z,98921.31
2022-10-22T05:49:06.777Z,98929.63
2022-10-22T05:51:36.887Z,98940.31
2022-10-22T05:54:07.992Z,98946.59
2022-10-22T05:56:37.585Z,98938.78
2022-10-22T05:59:04.808Z,98952.88
2022-10-22T06:01:35.627Z,98958.31
2022-10-22T06:04:06.570Z,98941.78
2022-10-22T06:06:40.854Z,98922.09
2022-10-22T06:09:34.500Z,98917.56
2022-10-22T06:12:01.960Z,98953.50
2022-10-22T06:14:29.395Z,98929.41
2022-10-22T06:16:59.513Z,98934.19
2022-10-22T06:19:27.135Z,98948.38
2022-10-22T06:21:54.349Z,98974.75
2022-10-22T06:24:21.685Z,98980.53
2022-10-22T06:26:52.698Z,98966.34
2022-10-22T06:29:19.848Z,98955.41
2022-10-22T06:31:47.976Z,98947.56
2022-10-22T06:34:18.808Z,98964.56
2022-10-22T06:36:46.841Z,98957.47
2022-10-22T06:39:17.010Z,98982.34
2022-10-22T06:41:44.187Z,98940.50
2022-10-22T06:44:16.053Z,98996.97
2022-10-22T06:46:43.654Z,98975.63
2022-10-22T06:49:17.131Z,98980.41
2022-10-22T06:51:44.888Z,99006.09
2022-10-22T06:54:12.467Z,99006.44
2022-10-22T06:56:39.453Z,99014.34
2022-10-22T06:59:06.704Z,99039.13
2022-10-22T07:01:35.434Z,98992.66
2022-10-22T07:04:03.869Z,99025.03
2022-10-22T07:06:31.682Z,99038.47
2022-10-22T07:09:00.529Z,99002.16
2022-10-22T07:11:42.105Z,99032.06
2022-10-22T07:14:09.973Z,99021.88
2022-10-22T07:16:38.020Z,99029.81
2022-10-22T07:19:05.837Z,99013.16
2022-10-22T07:21:33.112Z,99038.03
2022-10-22T07:24:00.266Z,99039.97
2022-10-22T07:26:30.883Z,99025.81
2022-10-22T07:29:00.425Z,99036.09
2022-10-22T07:31:28.321Z,99046.25
2022-10-22T07:33:55.601Z,99037.84
2022-10-22T07:36:22.543Z,99045.41
2022-10-22T07:38:56.829Z,99073.59
2022-10-22T07:41:24.817Z,99054.75
2022-10-22T07:43:51.925Z,99080.66
2022-10-22T07:46:20.462Z,99093.97
2022-10-22T07:48:47.724Z,99089.75
2022-10-22T07:51:15.794Z,99071.81
2022-10-22T07:53:43.330Z,99075.81
2022-10-22T07:56:10.801Z,99063.88
2022-10-22T07:58:38.079Z,99077.13
2022-10-22T08:01:08.125Z,99108.72
2022-10-22T08:03:35.670Z,99077.03
2022-10-22T08:06:03.667Z,99109.69
2022-10-22T08:08:30.954Z,99096.00
2022-10-22T08:11:00.690Z,99101.59
2022-10-22T08:13:30.738Z,99082.91
2022-10-22T08:16:00.368Z,99106.22
2022-10-22T08:18:28.551Z,99117.72
2022-10-22T08:20:56.168Z,99102.91
2022-10-22T08:23:26.087Z,99092.81
2022-10-22T08:25:57.240Z,99099.03
2022-10-22T08:28:24.541Z,99124.28
2022-10-22T08:30:51.674Z,99125.63
2022-10-22T08:33:18.624Z,99113.03
2022-10-22T08:35:52.626Z,99139.84
2022-10-22T08:38:20.526Z,99144.00
2022-10-22T08:41:14.623Z,99122.28
2022-10-22T08:44:02.605Z,99123.00
2022-10-22T08:46:35.171Z,99143.91
2022-10-22T08:51:41.390Z,99143.47
2022-10-22T08:54:47.306Z,99144.59
2022-10-22T08:57:39.543Z,99148.53
2022-10-22T09:00:31.181Z,99141.06
2022-10-22T09:03:09.751Z,99144.31
2022-10-22T09:05:55.796Z,99154.59
2022-10-22T09:08:23.846Z,99129.53
2022-10-22T09:11:13.395Z,99130.28
2022-10-22T09:13:43.313Z,99171.97
2022-10-22T09:16:36.254Z,99187.25
2022-10-22T09:19:06.310Z,99162.31
2022-10-22T09:21:54.398Z,99146.56
2022-10-22T09:24:39.311Z,99146.63
2022-10-22T09:27:21.112Z,99153.28
2022-10-22T09:29:48.794Z,99175.81
2022-10-22T09:32:17.426Z,99169.16
2022-10-22T09:34:46.702Z,99191.56
2022-10-22T09:37:19.286Z,99205.63
2022-10-22T09:39:52.966Z,99216.56
2022-10-22T09:42:22.170Z,99200.00
2022-10-22T09:44:55.334Z,99226.31
2022-10-22T09:48:00.636Z,99200.94
2022-10-22T09:50:45.967Z,99217.41
2022-10-22T09:53:28.781Z,99233.72
2022-10-22T09:56:00.494Z,99240.03
2022-10-22T09:58:28.163Z,99221.22
2022-10-22T10:01:00.526Z,99201.47
2022-10-22T10:03:31.513Z,99237.56
2022-10-22T10:06:04.757Z,99225.78
2022-10-22T10:08:33.893Z,99225.94
2022-10-22T10:11:29.240Z,99204.47
2022-10-22T10:14:34.416Z,99190.16
2022-10-22T10:18:10.565Z,99239.75
2022-10-22T10:20:54.863Z,99225.09
2022-10-22T10:23:55.035Z,99217.63
2022-10-22T10:26:54.920Z,99217.13
2022-10-22T10:29:48.843Z,99218.44
2022-10-22T10:32:51.015Z,99205.69
2022-10-22T10:36:03.412Z,99242.31
2022-10-22T10:38:41.041Z,99217.41
2022-10-22T10:41:26.979Z,99243.75
2022-10-22T10:44:24.254Z,99226.19
2022-10-22T10:47:31.619Z,99232.69
2022-10-22T10:50:35.573Z,99217.75
2022-10-22T10:53:24.267Z,99254.50
2022-10-22T10:56:13.613Z,99229.06
2022-10-22T10:59:17.183Z,99224.72
2022-10-22T11:02:27.866Z,99254.75
2022-10-22T11:05:28.147Z,99226.75
2022-10-22T11:08:17.355Z,99226.50
2022-10-22T11:10:50.367Z,99228.81
2022-10-22T11:13:31.563Z,99217.41
2022-10-22T11:16:15.074Z,99230.72
2022-10-22T11:19:22.531Z,99231.34
2022-10-22T11:22:26.776Z,99225.59
2022-10-22T11:25:13.248Z,99232.88
2022-10-22T11:27:53.610Z,99221.22
2022-10-22T11:30:28.613Z,99215.59
2022-10-22T11:33:01.786Z,99223.22
2022-10-22T11:35:34.924Z,99226.34
2022-10-22T11:38:05.460Z,99223.25
2022-10-22T11:40:39.486Z,99240.25
2022-10-22T11:43:25.766Z,99234.13
2022-10-22T11:46:23.229Z,99238.25
2022-10-22T11:49:19.603Z,99204.72
2022-10-22T11:51:47.640Z,99224.22
2022-10-22T11:54:44.410Z,99235.09
2022-10-22T11:57:19.633Z,99207.09
2022-10-22T12:00:01.399Z,99179.28
2022-10-22T12:02:28.280Z,99201.06
2022-10-22T12:05:23.335Z,99195.22
2022-10-22T12:07:55.066Z,99209.22
2022-10-22T12:10:29.426Z,99205.75
2022-10-22T12:13:11.059Z,99204.97
2022-10-22T12:15:53.294Z,99220.56
2022-10-22T12:18:27.686Z,99219.66
2022-10-22T12:20:55.269Z,99208.34
2022-10-22T12:23:31.695Z,99233.59
2022-10-22T12:25:58.730Z,99191.06
2022-10-22T12:28:26.027Z,99249.66
2022-10-22T12:30:52.977Z,99191.63
2022-10-22T12:33:23.286Z,99186.94
2022-10-22T12:35:54.068Z,99195.91
2022-10-22T12:38:24.372Z,99212.69
2022-10-22T12:40:55.038Z,99194.69
2022-10-22T12:43:30.075Z,99218.47
2022-10-22T12:45:59.112Z,99199.19
2022-10-22T12:48:34.462Z,99204.03
2022-10-22T12:51:04.725Z,99189.59
2022-10-22T12:53:44.266Z,99193.69
2022-10-22T12:56:16.180Z,99205.44
2022-10-22T12:59:06.867Z,99185.19
2022-10-22T13:01:40.010Z,99177.00
2022-10-22T13:04:16.897Z,99187.16
2022-10-22T13:06:50.173Z,99166.94
2022-10-22T13:09:27.477Z,99191.50
2022-10-22T13:12:04.895Z,99164.16
2022-10-22T13:14:38.237Z,99145.84
2022-10-22T13:17:39.052Z,99172.19
2022-10-22T13:20:26.546Z,99152.44
2022-10-22T13:23:00.544Z,99181.84
2022-10-22T13:25:34.902Z,99175.69
2022-10-22T13:28:25.229Z,99158.38
2022-10-22T13:31:19.926Z,99171.50
2022-10-22T13:33:55.071Z,99172.75
2022-10-22T13:36:23.634Z,99159.78
2022-10-22T13:38:51.321Z,99151.81
2022-10-22T13:41:27.287Z,99137.50
2022-10-22T13:43:55.229Z,99165.03
2022-10-22T13:46:24.242Z,99152.59
2022-10-22T13:48:55.276Z,99154.19
2022-10-22T13:51:27.867Z,99122.28
2022-10-22T13:53:54.874Z,99145.75
2022-10-22T13:56:22.721Z,99170.97
2022-10-22T13:58:49.830Z,99160.31
2022-10-22T14:01:26.969Z,99168.81
2022-10-22T14:04:01.941Z,99161.09
2022-10-22T14:06:32.071Z,99140.31
2022-10-22T14:09:06.313Z,99122.88
2022-10-22T14:11:35.400Z,99122.00
2022-10-22T14:14:04.970Z,99130.13
2022-10-22T14:16:33.302Z,99134.25
2022-10-22T14:19:02.475Z,99116.47
2022-10-22T14:21:37.537Z,99143.22
2022-10-22T14:24:07.090Z,99139.56
2022-10-22T14:26:36.639Z,99103.66
2022-10-22T14:29:09.301Z,99136.50
2022-10-22T14:31:43.410Z,99137.25
2022-10-22T14:34:13.855Z,99137.88
2022-10-22T14:36:43.746Z,99138.16
2022-10-22T14:39:11.919Z,99126.03
2022-10-22T14:41:39.524Z,99114.00
2022-10-22T14:44:06.549Z,99120.16
2022-10-22T14:46:33.995Z,99091.81
2022-10-22T14:49:00.958Z,99122.56
2022-10-22T14:51:28.187Z,99111.69
2022-10-22T14:53:55.155Z,99112.00
2022-10-22T14:56:22.136Z,99093.50
2022-10-22T14:58:50.533Z,99121.84
2022-10-22T15:01:17.800Z,99112.66
2022-10-22T15:03:45.057Z,99114.19
2022-10-22T15:06:12.094Z,99102.28
2022-10-22T15:08:39.654Z,99056.19
2022-10-22T15:11:11.308Z,99049.00
2022-10-22T15:13:39.291Z,99057.50
2022-10-22T15:16:08.672Z,99085.16
2022-10-22T15:18:36.468Z,99048.09
2022-10-22T15:21:16.926Z,99056.09
2022-10-22T15:23:43.941Z,99073.13
2022-10-22T15:26:13.328Z,99104.94
2022-10-22T15:28:41.729Z,99076.06
2022-10-22T15:31:13.386Z,99083.91
2022-10-22T15:33:42.746Z,99106.00
2022-10-22T15:36:16.147Z,99096.13
2022-10-22T15:38:43.200Z,99080.75
2022-10-22T15:41:12.782Z,99080.56
2022-10-22T15:43:39.744Z,99107.97
2022-10-22T15:46:17.482Z,99107.69
2022-10-22T15:48:45.721Z,99137.59
2022-10-22T15:51:16.670Z,99118.06
2022-10-22T15:53:44.391Z,99069.56
2022-10-22T15:56:12.089Z,99066.34
2022-10-22T15:58:39.875Z,99049.66
2022-10-22T16:01:11.702Z,99049.06
2022-10-22T16:03:40.133Z,99085.41
2022-10-22T16:06:09.397Z,99061.78
2022-10-22T16:08:37.735Z,99050.81
2022-10-22T16:11:05.583Z,99010.72
2022-10-22T16:13:32.627Z,99028.28
2022-10-22T16:16:04.168Z,99098.63
2022-10-22T16:18:31.447Z,99034.31
2022-10-22T16:20:59.109Z,99031.91
2022-10-22T16:23:26.133Z,99014.84
2022-10-22T16:25:53.198Z,99045.97
2022-10-22T16:28:20.463Z,99057.91
2022-10-22T16:30:47.438Z,98956.03
2022-10-22T16:33:14.611Z,98947.66
2022-10-22T16:35:42.739Z,99082.94
2022-10-22T16:38:11.212Z,99014.56
2022-10-22T16:40:38.477Z,98990.66
2022-10-22T16:43:06.255Z,98965.19
2022-10-22T16:45:33.336Z,98998.81
2022-10-22T16:48:00.781Z,98988.28
2022-10-22T16:50:27.980Z,99012.00
2022-10-22T16:52:55.043Z,98963.81
2022-10-22T16:55:22.236Z,99014.38
2022-10-22T16:57:53.716Z,98987.09
2022-10-22T17:00:21.610Z,99009.81
2022-10-22T17:02:55.463Z,99025.66
2022-10-22T17:05:23.494Z,98961.53
2022-10-22T17:07:50.961Z,98994.31
2022-10-22T17:12:54.281Z,99039.50
2022-10-22T17:15:21.246Z,98960.16
2022-10-22T17:17:52.489Z,98970.03
2022-10-22T17:20:20.263Z,99027.84
2022-10-22T17:22:49.592Z,98945.13
2022-10-22T17:25:32.648Z,98965.03
2022-10-22T17:27:59.783Z,99015.44
2022-10-22T17:30:28.368Z,99011.78
2022-10-22T17:32:55.741Z,99001.63
2022-10-22T17:35:22.963Z,99019.97
2022-10-22T17:37:50.052Z,98943.41
2022-10-22T17:40:17.038Z,99011.69
2022-10-22T17:42:45.634Z,98921.50
2022-10-22T17:45:12.597Z,98933.00
2022-10-22T17:47:40.095Z,98995.75
2022-10-22T17:50:08.183Z,99010.03
2022-10-22T17:52:35.801Z,98982.56
2022-10-22T17:55:03.560Z,98981.38
2022-10-22T17:57:30.598Z,98935.34
2022-10-22T17:59:57.645Z,99010.72
2022-10-22T18:02:24.833Z,99000.31
2022-10-22T18:04:52.599Z,98994.03
2022-10-22T18:07:20.781Z,99008.34
2022-10-22T18:09:48.150Z,98997.47
2022-10-22T18:12:18.070Z,98984.19
2022-10-22T18:14:46.986Z,99000.94
2022-10-22T18:19:47.727Z,98999.59
2022-10-22T18:22:14.815Z,98977.94
2022-10-22T18:24:41.802Z,98995.00
2022-10-22T18:27:08.997Z,99022.72
2022-10-22T18:29:36.935Z,98964.69
2022-10-22T18:32:09.416Z,98997.69
2022-10-22T18:34:39.297Z,99018.47
2022-10-22T18:37:06.475Z,98988.75
2022-10-22T18:39:34.381Z,98960.81
2022-10-22T18:42:06.364Z,99027.59
2022-10-22T18:44:34.842Z,98930.59
2022-10-22T18:47:02.234Z,98977.13
2022-10-22T18:49:29.254Z,98955.50
2022-10-22T18:51:56.199Z,98954.94
2022-10-22T18:54:24.367Z,98991.88
2022-10-22T18:56:53.330Z,98980.91
2022-10-22T18:59:26.292Z,98988.38
2022-10-22T19:01:55.438Z,99015.97
2022-10-22T19:04:22.647Z,99013.00
2022-10-22T19:06:50.146Z,98996.91
2022-10-22T19:09:17.527Z,99019.13
2022-10-22T19:11:45.675Z,98997.88
2022-10-22T19:14:14.789Z,99011.81
2022-10-22T19:16:41.928Z,98997.38
2022-10-22T19:19:09.051Z,98957.81
2022-10-22T19:21:38.117Z,99001.53
2022-10-22T19:24:06.016Z,99013.84
2022-10-22T19:26:33.074Z,98969.44
2022-10-22T19:29:01.031Z,99022.50
2022-10-22T19:31:32.445Z,98995.66
2022-10-22T19:34:02.024Z,99026.91
2022-10-22T19:36:32.473Z,98952.44
2022-10-22T19:38:59.941Z,98957.13
2022-10-22T19:41:29.246Z,98982.19
2022-10-22T19:43:57.994Z,98996.94
2022-10-22T19:46:26.947Z,98946.63
2022-10-22T19:48:57.033Z,99011.06
2022-10-22T19:51:29.686Z,98978.19
2022-10-22T19:54:06.047Z,99003.03
2022-10-22T19:56:35.835Z,98961.63
2022-10-22T19:59:04.702Z,98968.44
2022-10-22T20:01:32.008Z,99024.72
2022-10-22T20:04:00.249Z,98940.16
2022-10-22T20:06:27.554Z,98993.44
2022-10-22T20:08:56.187Z,99016.09
2022-10-22T20:11:28.304Z,99011.75
2022-10-22T20:13:57.049Z,98967.50
2022-10-22T20:16:28.530Z,98974.72
2022-10-22T20:19:00.455Z,98961.47
2022-10-22T20:21:27.499Z,98980.81
2022-10-22T20:23:56.381Z,99005.75
2022-10-22T20:26:24.575Z,99017.69
2022-10-22T20:28:52.282Z,99040.50
2022-10-22T20:31:21.757Z,99031.72
2022-10-22T20:33:50.946Z,98969.84
2022-10-22T20:36:21.855Z,98975.44
2022-10-22T20:38:50.862Z,99023.97
2022-10-22T20:41:21.573Z,98969.59
2022-10-22T20:43:51.056Z,99002.63
2022-10-22T20:46:24.619Z,99001.88
2022-10-22T20:48:54.752Z,99029.50
2022-10-22T20:51:22.334Z,99013.69
2022-10-22T20:53:50.333Z,98965.56
2022-10-22T20:56:18.187Z,99008.53
2022-10-22T20:58:49.107Z,98950.97
2022-10-22T21:01:24.428Z,98919.94
2022-10-22T21:03:52.801Z,99024.94
2022-10-22T21:06:23.007Z,99043.56
2022-10-22T21:08:51.299Z,98924.63
2022-10-22T21:11:19.609Z,98962.53
2022-10-22T21:13:47.285Z,98958.44
2022-10-22T21:16:17.607Z,98980.59
2022-10-22T21:18:46.455Z,99033.22
2022-10-22T21:21:14.303Z,98995.28
2022-10-22T21:23:41.349Z,99004.72
2022-10-22T21:26:08.697Z,98936.63
2022-10-22T21:28:36.878Z,98972.63
2022-10-22T21:31:07.364Z,98944.41
2022-10-22T21:33:39.289Z,98976.38
2022-10-22T21:36:09.226Z,98979.88
2022-10-22T21:38:37.752Z,98979.53
2022-10-22T21:41:07.535Z,98971.91
2022-10-22T21:43:36.881Z,98984.28
2022-10-22T21:46:16.463Z,98958.47
2022-10-22T21:48:44.219Z,98994.09
2022-10-22T21:51:15.982Z,98935.31
2022-10-22T21:53:43.798Z,98945.66
2022-10-22T21:56:21.011Z,98990.22
2022-10-22T21:58:48.514Z,98965.78
2022-10-22T22:01:16.874Z,98912.09
2022-10-22T22:03:49.163Z,98940.50
2022-10-22T22:06:21.244Z,99041.22
2022-10-22T22:08:51.304Z,98978.44
2022-10-22T22:11:25.027Z,99012.78
2022-10-22T22:13:53.685Z,99020.66
2022-10-22T22:16:27.286Z,99010.03
2022-10-22T22:19:01.653Z,98923.88
2022-10-22T22:21:29.734Z,99033.75
2022-10-22T22:23:58.215Z,99022.63
2022-10-22T22:26:29.916Z,98955.13
2022-10-22T22:28:59.417Z,98994.63
2022-10-22T22:31:31.111Z,98926.66
2022-10-22T22:34:08.219Z,98972.88
2022-10-22T22:36:42.011Z,98930.25
2022-10-22T22:39:13.903Z,99007.66
2022-10-22T22:41:42.439Z,98983.16
2022-10-22T22:44:09.930Z,99018.72
2022-10-22T22:46:37.416Z,98938.13
2022-10-22T22:49:05.450Z,99002.91
2022-10-22T22:51:33.260Z,99000.94
2022-10-22T22:54:01.128Z,98983.94
2022-10-22T22:56:31.732Z,99033.72
2022-10-22T22:58:59.186Z,98972.88
2022-10-22T23:01:33.871Z,98926.31
2022-10-22T23:04:19.377Z,98933.00
2022-10-22T23:06:46.632Z,98991.84
2022-10-22T23:09:16.619Z,98980.00
2022-10-22T23:11:45.498Z,98917.22
2022-10-22T23:14:15.942Z,98990.25
2022-10-22T23:16:47.653Z,98946.81
2022-10-22T23:19:18.950Z,98924.72
2022-10-22T23:21:53.786Z,99002.09
2022-10-22T23:24:25.266Z,98959.88
2022-10-22T23:26:54.733Z,98961.03
2022-10-22T23:29:27.962Z,98968.53
2022-10-22T23:31:58.533Z,98981.19
2022-10-22T23:34:26.046Z,98976.06
2022-10-22T23:36:54.531Z,98962.63
2022-10-22T23:39:27.005Z,98983.91
2022-10-22T23:41:54.579Z,98982.34
2022-10-22T23:44:23.240Z,99011.19
2022-10-22T23:46:51.089Z,98991.00
2022-10-22T23:49:18.569Z,98918.81
2022-10-22T23:51:45.775Z,98990.22
2022-10-22T23:54:15.680Z,98942.09
2022-10-22T23:56:42.686Z,98908.53
2022-10-22T23:59:10.238Z,98993.03
